sensor_id;sensor_type;location;lat;lon;timestamp;P1;durP1;ratioP1;P2;durP2;ratioP2
15595;SDS011;7898;48.658;9.068;2023-04-30T00:00:00;9.13;;;6.30;;
15595;SDS011;7898;48.658;9.068;2023-04-30T00:02:28;8.03;;;6.73;;
15595;SDS011;7898;48.658;9.068;2023-04-30T00:04:55;9.50;;;6.90;;
15595;SDS011;7898;48.658;9.068;2023-04-30T00:07:21;8.07;;;6.37;;
15595;SDS011;7898;48.658;9.068;2023-04-30T00:09:48;8.20;;;6.23;;
15595;SDS011;7898;48.658;9.068;2023-04-30T00:12:16;9.50;;;6.33;;
15595;SDS011;7898;48.658;9.068;2023-04-30T00:14:42;8.57;;;6.87;;
15595;SDS011;7898;48.658;9.068;2023-04-30T00:17:09;7.67;;;6.57;;
15595;SDS011;7898;48.658;9.068;2023-04-30T00:19:38;7.83;;;6.13;;
15595;SDS011;7898;48.658;9.068;2023-04-30T00:22:04;8.03;;;6.23;;
15595;SDS011;7898;48.658;9.068;2023-04-30T00:24:31;7.40;;;6.07;;
15595;SDS011;7898;48.658;9.068;2023-04-30T00:26:58;7.50;;;6.13;;
15595;SDS011;7898;48.658;9.068;2023-04-30T00:29:25;8.73;;;6.20;;
15595;SDS011;7898;48.658;9.068;2023-04-30T00:31:52;10.37;;;7.00;;
15595;SDS011;7898;48.658;9.068;2023-04-30T00:34:19;9.07;;;6.77;;
15595;SDS011;7898;48.658;9.068;2023-04-30T00:36:47;9.57;;;7.37;;
15595;SDS011;7898;48.658;9.068;2023-04-30T00:39:14;7.80;;;6.27;;
15595;SDS011;7898;48.658;9.068;2023-04-30T00:41:41;8.93;;;6.80;;
15595;SDS011;7898;48.658;9.068;2023-04-30T00:44:08;8.57;;;6.37;;
15595;SDS011;7898;48.658;9.068;2023-04-30T00:46:35;7.83;;;7.03;;
15595;SDS011;7898;48.658;9.068;2023-04-30T00:49:02;8.90;;;6.73;;
15595;SDS011;7898;48.658;9.068;2023-04-30T00:51:30;7.60;;;6.67;;
15595;SDS011;7898;48.658;9.068;2023-04-30T00:53:59;8.23;;;6.17;;
15595;SDS011;7898;48.658;9.068;2023-04-30T00:56:27;9.20;;;6.07;;
15595;SDS011;7898;48.658;9.068;2023-04-30T00:58:54;8.77;;;6.23;;
15595;SDS011;7898;48.658;9.068;2023-04-30T01:01:22;8.80;;;6.63;;
15595;SDS011;7898;48.658;9.068;2023-04-30T01:03:49;9.93;;;7.07;;
15595;SDS011;7898;48.658;9.068;2023-04-30T01:06:16;7.80;;;6.10;;
15595;SDS011;7898;48.658;9.068;2023-04-30T01:08:43;6.27;;;5.67;;
15595;SDS011;7898;48.658;9.068;2023-04-30T01:11:15;10.53;;;5.40;;
15595;SDS011;7898;48.658;9.068;2023-04-30T01:13:49;9.17;;;6.37;;
15595;SDS011;7898;48.658;9.068;2023-04-30T01:16:25;8.37;;;6.37;;
15595;SDS011;7898;48.658;9.068;2023-04-30T01:18:55;11.13;;;7.63;;
15595;SDS011;7898;48.658;9.068;2023-04-30T01:21:25;8.67;;;6.83;;
15595;SDS011;7898;48.658;9.068;2023-04-30T01:24:05;7.60;;;6.50;;
15595;SDS011;7898;48.658;9.068;2023-04-30T01:26:52;8.07;;;6.67;;
15595;SDS011;7898;48.658;9.068;2023-04-30T01:29:32;8.33;;;6.60;;
15595;SDS011;7898;48.658;9.068;2023-04-30T01:32:01;8.47;;;6.40;;
15595;SDS011;7898;48.658;9.068;2023-04-30T01:34:28;8.67;;;6.73;;
15595;SDS011;7898;48.658;9.068;2023-04-30T01:36:59;9.73;;;6.70;;
15595;SDS011;7898;48.658;9.068;2023-04-30T01:39:36;9.27;;;6.73;;
15595;SDS011;7898;48.658;9.068;2023-04-30T01:42:15;9.57;;;6.63;;
15595;SDS011;7898;48.658;9.068;2023-04-30T01:44:57;9.60;;;6.93;;
15595;SDS011;7898;48.658;9.068;2023-04-30T01:47:35;10.07;;;7.33;;
15595;SDS011;7898;48.658;9.068;2023-04-30T01:50:09;8.00;;;6.77;;
15595;SDS011;7898;48.658;9.068;2023-04-30T01:52:44;8.77;;;6.90;;
15595;SDS011;7898;48.658;9.068;2023-04-30T01:55:17;10.07;;;6.60;;
15595;SDS011;7898;48.658;9.068;2023-04-30T01:57:49;10.70;;;6.97;;
15595;SDS011;7898;48.658;9.068;2023-04-30T02:00:23;8.20;;;6.50;;
15595;SDS011;7898;48.658;9.068;2023-04-30T02:02:51;8.87;;;6.23;;
15595;SDS011;7898;48.658;9.068;2023-04-30T02:05:18;9.27;;;7.27;;
15595;SDS011;7898;48.658;9.068;2023-04-30T02:07:46;10.23;;;7.63;;
15595;SDS011;7898;48.658;9.068;2023-04-30T02:10:15;9.00;;;7.30;;
15595;SDS011;7898;48.658;9.068;2023-04-30T02:12:43;9.03;;;6.83;;
15595;SDS011;7898;48.658;9.068;2023-04-30T02:15:10;9.27;;;6.67;;
15595;SDS011;7898;48.658;9.068;2023-04-30T02:17:38;11.27;;;8.30;;
15595;SDS011;7898;48.658;9.068;2023-04-30T02:20:07;10.50;;;7.20;;
15595;SDS011;7898;48.658;9.068;2023-04-30T02:22:34;11.37;;;7.63;;
15595;SDS011;7898;48.658;9.068;2023-04-30T02:25:02;9.73;;;7.47;;
15595;SDS011;7898;48.658;9.068;2023-04-30T02:27:30;11.27;;;7.83;;
15595;SDS011;7898;48.658;9.068;2023-04-30T02:29:57;10.50;;;7.90;;
15595;SDS011;7898;48.658;9.068;2023-04-30T02:32:25;11.13;;;7.97;;
15595;SDS011;7898;48.658;9.068;2023-04-30T02:34:53;12.80;;;8.17;;
15595;SDS011;7898;48.658;9.068;2023-04-30T02:37:20;11.30;;;8.57;;
15595;SDS011;7898;48.658;9.068;2023-04-30T02:39:47;11.23;;;8.43;;
15595;SDS011;7898;48.658;9.068;2023-04-30T02:42:14;12.17;;;8.67;;
15595;SDS011;7898;48.658;9.068;2023-04-30T02:44:41;12.83;;;9.47;;
15595;SDS011;7898;48.658;9.068;2023-04-30T02:47:08;13.20;;;8.67;;
15595;SDS011;7898;48.658;9.068;2023-04-30T02:49:35;13.00;;;8.67;;
15595;SDS011;7898;48.658;9.068;2023-04-30T02:52:03;12.50;;;9.50;;
15595;SDS011;7898;48.658;9.068;2023-04-30T02:54:31;12.83;;;9.40;;
15595;SDS011;7898;48.658;9.068;2023-04-30T02:56:58;11.37;;;9.30;;
15595;SDS011;7898;48.658;9.068;2023-04-30T02:59:24;13.93;;;9.97;;
15595;SDS011;7898;48.658;9.068;2023-04-30T03:01:52;13.57;;;10.13;;
15595;SDS011;7898;48.658;9.068;2023-04-30T03:04:19;13.20;;;10.20;;
15595;SDS011;7898;48.658;9.068;2023-04-30T03:06:45;13.70;;;10.27;;
15595;SDS011;7898;48.658;9.068;2023-04-30T03:09:14;12.80;;;9.47;;
15595;SDS011;7898;48.658;9.068;2023-04-30T03:11:40;12.93;;;9.83;;
15595;SDS011;7898;48.658;9.068;2023-04-30T03:14:07;13.17;;;9.50;;
15595;SDS011;7898;48.658;9.068;2023-04-30T03:16:34;13.50;;;9.83;;
15595;SDS011;7898;48.658;9.068;2023-04-30T03:19:01;14.40;;;10.27;;
15595;SDS011;7898;48.658;9.068;2023-04-30T03:21:28;16.67;;;10.90;;
15595;SDS011;7898;48.658;9.068;2023-04-30T03:23:55;14.43;;;10.80;;
15595;SDS011;7898;48.658;9.068;2023-04-30T03:26:23;13.23;;;10.57;;
15595;SDS011;7898;48.658;9.068;2023-04-30T03:28:50;16.80;;;11.40;;
15595;SDS011;7898;48.658;9.068;2023-04-30T03:31:19;16.93;;;10.77;;
15595;SDS011;7898;48.658;9.068;2023-04-30T03:33:46;17.37;;;10.73;;
15595;SDS011;7898;48.658;9.068;2023-04-30T03:36:12;15.90;;;9.97;;
15595;SDS011;7898;48.658;9.068;2023-04-30T03:38:39;14.30;;;10.57;;
15595;SDS011;7898;48.658;9.068;2023-04-30T03:41:07;16.47;;;11.40;;
15595;SDS011;7898;48.658;9.068;2023-04-30T03:43:35;15.70;;;11.00;;
15595;SDS011;7898;48.658;9.068;2023-04-30T03:46:02;14.40;;;11.03;;
15595;SDS011;7898;48.658;9.068;2023-04-30T03:48:29;14.30;;;10.87;;
15595;SDS011;7898;48.658;9.068;2023-04-30T03:50:55;14.97;;;11.13;;
15595;SDS011;7898;48.658;9.068;2023-04-30T03:53:22;15.00;;;11.10;;
15595;SDS011;7898;48.658;9.068;2023-04-30T03:55:50;15.77;;;10.70;;
15595;SDS011;7898;48.658;9.068;2023-04-30T03:58:18;16.87;;;10.40;;
15595;SDS011;7898;48.658;9.068;2023-04-30T04:00:47;16.53;;;11.20;;
15595;SDS011;7898;48.658;9.068;2023-04-30T04:03:14;15.23;;;10.13;;
15595;SDS011;7898;48.658;9.068;2023-04-30T04:05:41;14.60;;;10.57;;
15595;SDS011;7898;48.658;9.068;2023-04-30T04:08:08;16.93;;;11.13;;
15595;SDS011;7898;48.658;9.068;2023-04-30T04:10:35;14.80;;;10.77;;
15595;SDS011;7898;48.658;9.068;2023-04-30T04:13:02;14.77;;;10.33;;
15595;SDS011;7898;48.658;9.068;2023-04-30T04:15:29;15.53;;;10.20;;
15595;SDS011;7898;48.658;9.068;2023-04-30T04:17:57;13.97;;;10.40;;
15595;SDS011;7898;48.658;9.068;2023-04-30T04:20:24;14.30;;;9.87;;
15595;SDS011;7898;48.658;9.068;2023-04-30T04:22:52;14.70;;;10.63;;
15595;SDS011;7898;48.658;9.068;2023-04-30T04:25:19;15.77;;;10.87;;
15595;SDS011;7898;48.658;9.068;2023-04-30T04:27:49;12.87;;;9.93;;
15595;SDS011;7898;48.658;9.068;2023-04-30T04:30:17;16.40;;;9.83;;
15595;SDS011;7898;48.658;9.068;2023-04-30T04:32:43;13.30;;;10.03;;
15595;SDS011;7898;48.658;9.068;2023-04-30T04:35:15;14.93;;;11.00;;
15595;SDS011;7898;48.658;9.068;2023-04-30T04:37:42;11.90;;;9.73;;
15595;SDS011;7898;48.658;9.068;2023-04-30T04:40:09;14.80;;;10.93;;
15595;SDS011;7898;48.658;9.068;2023-04-30T04:42:37;16.23;;;11.57;;
15595;SDS011;7898;48.658;9.068;2023-04-30T04:45:05;15.07;;;9.90;;
15595;SDS011;7898;48.658;9.068;2023-04-30T04:47:33;14.37;;;9.63;;
15595;SDS011;7898;48.658;9.068;2023-04-30T04:50:00;16.37;;;10.70;;
15595;SDS011;7898;48.658;9.068;2023-04-30T04:52:29;14.23;;;9.50;;
15595;SDS011;7898;48.658;9.068;2023-04-30T04:54:56;15.17;;;10.73;;
15595;SDS011;7898;48.658;9.068;2023-04-30T04:57:23;15.77;;;10.70;;
15595;SDS011;7898;48.658;9.068;2023-04-30T04:59:50;12.53;;;10.47;;
15595;SDS011;7898;48.658;9.068;2023-04-30T05:02:17;12.77;;;9.90;;
15595;SDS011;7898;48.658;9.068;2023-04-30T05:04:44;14.60;;;10.23;;
15595;SDS011;7898;48.658;9.068;2023-04-30T05:07:14;15.27;;;10.77;;
15595;SDS011;7898;48.658;9.068;2023-04-30T05:09:42;12.20;;;9.43;;
15595;SDS011;7898;48.658;9.068;2023-04-30T05:12:10;12.90;;;10.07;;
15595;SDS011;7898;48.658;9.068;2023-04-30T05:14:36;13.43;;;10.23;;
15595;SDS011;7898;48.658;9.068;2023-04-30T05:17:03;14.20;;;10.53;;
15595;SDS011;7898;48.658;9.068;2023-04-30T05:19:30;14.60;;;10.40;;
15595;SDS011;7898;48.658;9.068;2023-04-30T05:21:57;16.40;;;10.40;;
15595;SDS011;7898;48.658;9.068;2023-04-30T05:24:25;14.40;;;10.27;;
15595;SDS011;7898;48.658;9.068;2023-04-30T05:26:53;13.27;;;10.00;;
15595;SDS011;7898;48.658;9.068;2023-04-30T05:29:20;13.37;;;10.20;;
15595;SDS011;7898;48.658;9.068;2023-04-30T05:31:47;12.33;;;9.90;;
15595;SDS011;7898;48.658;9.068;2023-04-30T05:34:14;12.60;;;9.60;;
15595;SDS011;7898;48.658;9.068;2023-04-30T05:36:41;12.10;;;9.43;;
15595;SDS011;7898;48.658;9.068;2023-04-30T05:39:07;12.50;;;9.30;;
15595;SDS011;7898;48.658;9.068;2023-04-30T05:41:34;11.90;;;9.50;;
15595;SDS011;7898;48.658;9.068;2023-04-30T05:44:03;12.40;;;9.83;;
15595;SDS011;7898;48.658;9.068;2023-04-30T05:46:30;13.13;;;10.33;;
15595;SDS011;7898;48.658;9.068;2023-04-30T05:48:57;14.70;;;10.27;;
15595;SDS011;7898;48.658;9.068;2023-04-30T05:51:24;12.00;;;8.90;;
15595;SDS011;7898;48.658;9.068;2023-04-30T05:53:51;13.33;;;9.37;;
15595;SDS011;7898;48.658;9.068;2023-04-30T05:56:18;11.77;;;9.57;;
15595;SDS011;7898;48.658;9.068;2023-04-30T05:58:46;12.33;;;9.70;;
15595;SDS011;7898;48.658;9.068;2023-04-30T06:01:16;11.37;;;9.10;;
15595;SDS011;7898;48.658;9.068;2023-04-30T06:03:44;13.37;;;9.20;;
15595;SDS011;7898;48.658;9.068;2023-04-30T06:06:11;13.37;;;9.13;;
15595;SDS011;7898;48.658;9.068;2023-04-30T06:08:38;14.17;;;9.47;;
15595;SDS011;7898;48.658;9.068;2023-04-30T06:11:06;12.63;;;9.83;;
15595;SDS011;7898;48.658;9.068;2023-04-30T06:13:33;13.20;;;9.63;;
15595;SDS011;7898;48.658;9.068;2023-04-30T06:16:00;12.55;;;9.48;;
15595;SDS011;7898;48.658;9.068;2023-04-30T06:18:28;12.83;;;9.40;;
15595;SDS011;7898;48.658;9.068;2023-04-30T06:20:55;12.27;;;9.40;;
15595;SDS011;7898;48.658;9.068;2023-04-30T06:23:22;13.70;;;9.43;;
15595;SDS011;7898;48.658;9.068;2023-04-30T06:25:48;13.80;;;10.10;;
15595;SDS011;7898;48.658;9.068;2023-04-30T06:28:15;14.27;;;9.83;;
15595;SDS011;7898;48.658;9.068;2023-04-30T06:30:42;12.20;;;10.27;;
15595;SDS011;7898;48.658;9.068;2023-04-30T06:33:09;11.57;;;9.45;;
15595;SDS011;7898;48.658;9.068;2023-04-30T06:35:38;12.70;;;9.40;;
15595;SDS011;7898;48.658;9.068;2023-04-30T06:38:05;11.82;;;9.95;;
15595;SDS011;7898;48.658;9.068;2023-04-30T06:40:32;12.23;;;9.65;;
15595;SDS011;7898;48.658;9.068;2023-04-30T06:42:59;12.10;;;9.63;;
15595;SDS011;7898;48.658;9.068;2023-04-30T06:45:26;11.70;;;9.25;;
15595;SDS011;7898;48.658;9.068;2023-04-30T06:47:53;14.73;;;9.60;;
15595;SDS011;7898;48.658;9.068;2023-04-30T06:50:20;12.15;;;9.27;;
15595;SDS011;7898;48.658;9.068;2023-04-30T06:52:48;12.70;;;10.02;;
15595;SDS011;7898;48.658;9.068;2023-04-30T06:55:15;12.93;;;9.82;;
15595;SDS011;7898;48.658;9.068;2023-04-30T06:57:42;12.43;;;8.95;;
15595;SDS011;7898;48.658;9.068;2023-04-30T07:00:09;13.20;;;9.10;;
15595;SDS011;7898;48.658;9.068;2023-04-30T07:02:39;13.13;;;9.77;;
15595;SDS011;7898;48.658;9.068;2023-04-30T07:05:06;12.13;;;9.00;;
15595;SDS011;7898;48.658;9.068;2023-04-30T07:07:33;11.82;;;9.20;;
15595;SDS011;7898;48.658;9.068;2023-04-30T07:10:01;11.13;;;9.40;;
15595;SDS011;7898;48.658;9.068;2023-04-30T07:12:28;11.60;;;9.10;;
15595;SDS011;7898;48.658;9.068;2023-04-30T07:14:55;11.45;;;9.07;;
15595;SDS011;7898;48.658;9.068;2023-04-30T07:17:22;10.25;;;8.80;;
15595;SDS011;7898;48.658;9.068;2023-04-30T07:19:49;11.85;;;9.05;;
15595;SDS011;7898;48.658;9.068;2023-04-30T07:22:16;11.02;;;9.10;;
15595;SDS011;7898;48.658;9.068;2023-04-30T07:24:43;11.07;;;7.97;;
15595;SDS011;7898;48.658;9.068;2023-04-30T07:27:11;9.85;;;8.27;;
15595;SDS011;7898;48.658;9.068;2023-04-30T07:29:38;11.38;;;8.50;;
15595;SDS011;7898;48.658;9.068;2023-04-30T07:32:05;10.13;;;8.20;;
15595;SDS011;7898;48.658;9.068;2023-04-30T07:34:32;13.52;;;7.80;;
15595;SDS011;7898;48.658;9.068;2023-04-30T07:36:59;10.65;;;8.00;;
15595;SDS011;7898;48.658;9.068;2023-04-30T07:39:27;10.07;;;7.75;;
15595;SDS011;7898;48.658;9.068;2023-04-30T07:41:55;7.68;;;6.88;;
15595;SDS011;7898;48.658;9.068;2023-04-30T07:44:23;8.18;;;7.03;;
15595;SDS011;7898;48.658;9.068;2023-04-30T07:46:50;7.43;;;6.63;;
15595;SDS011;7898;48.658;9.068;2023-04-30T07:49:17;7.88;;;7.07;;
15595;SDS011;7898;48.658;9.068;2023-04-30T07:51:44;6.82;;;6.13;;
15595;SDS011;7898;48.658;9.068;2023-04-30T07:54:11;8.45;;;7.25;;
15595;SDS011;7898;48.658;9.068;2023-04-30T07:56:38;7.93;;;7.13;;
15595;SDS011;7898;48.658;9.068;2023-04-30T07:59:06;7.60;;;6.80;;
15595;SDS011;7898;48.658;9.068;2023-04-30T08:01:34;9.02;;;7.32;;
15595;SDS011;7898;48.658;9.068;2023-04-30T08:04:01;7.00;;;6.30;;
15595;SDS011;7898;48.658;9.068;2023-04-30T08:06:28;7.18;;;6.47;;
15595;SDS011;7898;48.658;9.068;2023-04-30T08:08:55;8.07;;;6.65;;
15595;SDS011;7898;48.658;9.068;2023-04-30T08:11:23;7.60;;;6.70;;
15595;SDS011;7898;48.658;9.068;2023-04-30T08:13:50;8.65;;;6.28;;
15595;SDS011;7898;48.658;9.068;2023-04-30T08:16:17;7.63;;;6.82;;
15595;SDS011;7898;48.658;9.068;2023-04-30T08:18:46;7.25;;;6.55;;
15595;SDS011;7898;48.658;9.068;2023-04-30T08:21:13;6.43;;;5.75;;
15595;SDS011;7898;48.658;9.068;2023-04-30T08:23:42;7.97;;;6.93;;
15595;SDS011;7898;48.658;9.068;2023-04-30T08:26:08;7.25;;;5.70;;
15595;SDS011;7898;48.658;9.068;2023-04-30T08:28:35;8.02;;;6.72;;
15595;SDS011;7898;48.658;9.068;2023-04-30T08:31:02;7.40;;;5.78;;
15595;SDS011;7898;48.658;9.068;2023-04-30T08:33:29;6.38;;;5.72;;
15595;SDS011;7898;48.658;9.068;2023-04-30T08:35:58;9.63;;;6.25;;
15595;SDS011;7898;48.658;9.068;2023-04-30T08:38:25;6.43;;;5.55;;
15595;SDS011;7898;48.658;9.068;2023-04-30T08:40:55;6.65;;;5.80;;
15595;SDS011;7898;48.658;9.068;2023-04-30T08:43:32;8.68;;;5.65;;
15595;SDS011;7898;48.658;9.068;2023-04-30T08:46:00;7.78;;;5.80;;
15595;SDS011;7898;48.658;9.068;2023-04-30T08:48:28;7.32;;;5.45;;
15595;SDS011;7898;48.658;9.068;2023-04-30T08:50:59;6.72;;;6.00;;
15595;SDS011;7898;48.658;9.068;2023-04-30T08:53:26;7.95;;;6.65;;
15595;SDS011;7898;48.658;9.068;2023-04-30T08:55:54;6.03;;;5.13;;
15595;SDS011;7898;48.658;9.068;2023-04-30T08:58:21;6.00;;;5.18;;
15595;SDS011;7898;48.658;9.068;2023-04-30T09:00:48;7.25;;;6.05;;
15595;SDS011;7898;48.658;9.068;2023-04-30T09:03:15;7.10;;;5.40;;
15595;SDS011;7898;48.658;9.068;2023-04-30T09:05:42;6.53;;;4.95;;
15595;SDS011;7898;48.658;9.068;2023-04-30T09:08:11;5.45;;;4.90;;
15595;SDS011;7898;48.658;9.068;2023-04-30T09:10:43;6.28;;;5.30;;
15595;SDS011;7898;48.658;9.068;2023-04-30T09:13:10;6.50;;;5.10;;
15595;SDS011;7898;48.658;9.068;2023-04-30T09:15:38;6.28;;;4.88;;
15595;SDS011;7898;48.658;9.068;2023-04-30T09:18:07;5.05;;;4.30;;
15595;SDS011;7898;48.658;9.068;2023-04-30T09:20:35;5.20;;;4.70;;
15595;SDS011;7898;48.658;9.068;2023-04-30T09:23:05;6.07;;;4.30;;
15595;SDS011;7898;48.658;9.068;2023-04-30T09:25:39;6.10;;;5.07;;
15595;SDS011;7898;48.658;9.068;2023-04-30T09:28:07;7.00;;;5.20;;
15595;SDS011;7898;48.658;9.068;2023-04-30T09:30:35;12.85;;;6.25;;
15595;SDS011;7898;48.658;9.068;2023-04-30T09:33:02;6.45;;;5.60;;
15595;SDS011;7898;48.658;9.068;2023-04-30T09:35:30;5.97;;;5.38;;
15595;SDS011;7898;48.658;9.068;2023-04-30T09:37:58;5.30;;;4.80;;
15595;SDS011;7898;48.658;9.068;2023-04-30T09:40:35;5.55;;;4.90;;
15595;SDS011;7898;48.658;9.068;2023-04-30T09:43:05;5.85;;;5.00;;
15595;SDS011;7898;48.658;9.068;2023-04-30T09:45:42;5.82;;;4.70;;
15595;SDS011;7898;48.658;9.068;2023-04-30T09:48:11;5.20;;;4.63;;
15595;SDS011;7898;48.658;9.068;2023-04-30T09:50:40;7.32;;;4.63;;
15595;SDS011;7898;48.658;9.068;2023-04-30T09:53:09;6.38;;;4.47;;
15595;SDS011;7898;48.658;9.068;2023-04-30T09:55:39;4.78;;;4.10;;
15595;SDS011;7898;48.658;9.068;2023-04-30T09:58:10;4.50;;;4.10;;
15595;SDS011;7898;48.658;9.068;2023-04-30T10:00:38;5.65;;;4.18;;
15595;SDS011;7898;48.658;9.068;2023-04-30T10:03:06;4.30;;;3.90;;
15595;SDS011;7898;48.658;9.068;2023-04-30T10:05:35;5.78;;;4.30;;
15595;SDS011;7898;48.658;9.068;2023-04-30T10:08:04;5.07;;;4.35;;
15595;SDS011;7898;48.658;9.068;2023-04-30T10:10:35;4.95;;;3.95;;
15595;SDS011;7898;48.658;9.068;2023-04-30T10:13:06;4.95;;;4.43;;
15595;SDS011;7898;48.658;9.068;2023-04-30T10:15:42;3.80;;;3.42;;
15595;SDS011;7898;48.658;9.068;2023-04-30T10:18:13;6.30;;;5.20;;
15595;SDS011;7898;48.658;9.068;2023-04-30T10:20:45;8.23;;;5.38;;
15595;SDS011;7898;48.658;9.068;2023-04-30T10:23:13;5.15;;;4.38;;
15595;SDS011;7898;48.658;9.068;2023-04-30T10:25:41;4.50;;;4.10;;
15595;SDS011;7898;48.658;9.068;2023-04-30T10:28:11;4.13;;;3.78;;
15595;SDS011;7898;48.658;9.068;2023-04-30T10:30:38;7.53;;;4.65;;
15595;SDS011;7898;48.658;9.068;2023-04-30T10:33:09;7.38;;;4.28;;
15595;SDS011;7898;48.658;9.068;2023-04-30T10:35:44;6.22;;;4.43;;
15595;SDS011;7898;48.658;9.068;2023-04-30T10:38:20;4.57;;;4.10;;
15595;SDS011;7898;48.658;9.068;2023-04-30T10:40:49;5.25;;;3.95;;
15595;SDS011;7898;48.658;9.068;2023-04-30T10:43:17;4.25;;;3.85;;
15595;SDS011;7898;48.658;9.068;2023-04-30T10:45:46;4.18;;;3.83;;
15595;SDS011;7898;48.658;9.068;2023-04-30T10:48:13;6.68;;;4.78;;
15595;SDS011;7898;48.658;9.068;2023-04-30T10:50:49;4.65;;;4.22;;
15595;SDS011;7898;48.658;9.068;2023-04-30T10:53:17;5.97;;;4.05;;
15595;SDS011;7898;48.658;9.068;2023-04-30T10:55:45;4.40;;;3.70;;
15595;SDS011;7898;48.658;9.068;2023-04-30T10:58:25;5.65;;;3.63;;
15595;SDS011;7898;48.658;9.068;2023-04-30T11:01:01;5.22;;;4.20;;
15595;SDS011;7898;48.658;9.068;2023-04-30T11:03:29;4.20;;;3.80;;
15595;SDS011;7898;48.658;9.068;2023-04-30T11:05:57;4.65;;;3.70;;
15595;SDS011;7898;48.658;9.068;2023-04-30T11:08:33;4.13;;;3.72;;
15595;SDS011;7898;48.658;9.068;2023-04-30T11:11:02;4.13;;;3.72;;
15595;SDS011;7898;48.658;9.068;2023-04-30T11:13:39;5.32;;;3.78;;
15595;SDS011;7898;48.658;9.068;2023-04-30T11:16:07;4.00;;;3.60;;
15595;SDS011;7898;48.658;9.068;2023-04-30T11:18:35;3.83;;;3.42;;
15595;SDS011;7898;48.658;9.068;2023-04-30T11:21:07;5.18;;;3.22;;
15595;SDS011;7898;48.658;9.068;2023-04-30T11:23:35;3.53;;;3.22;;
15595;SDS011;7898;48.658;9.068;2023-04-30T11:26:02;3.63;;;3.28;;
15595;SDS011;7898;48.658;9.068;2023-04-30T11:28:31;4.28;;;3.50;;
15595;SDS011;7898;48.658;9.068;2023-04-30T11:31:01;3.63;;;3.33;;
15595;SDS011;7898;48.658;9.068;2023-04-30T11:33:29;5.93;;;3.50;;
15595;SDS011;7898;48.658;9.068;2023-04-30T11:35:58;4.03;;;3.60;;
15595;SDS011;7898;48.658;9.068;2023-04-30T11:38:27;4.60;;;3.22;;
15595;SDS011;7898;48.658;9.068;2023-04-30T11:40:55;3.50;;;3.20;;
15595;SDS011;7898;48.658;9.068;2023-04-30T11:43:23;5.05;;;3.28;;
15595;SDS011;7898;48.658;9.068;2023-04-30T11:45:57;3.70;;;3.00;;
15595;SDS011;7898;48.658;9.068;2023-04-30T11:48:34;3.40;;;3.10;;
15595;SDS011;7898;48.658;9.068;2023-04-30T11:51:03;3.95;;;3.53;;
15595;SDS011;7898;48.658;9.068;2023-04-30T11:53:31;5.65;;;3.60;;
15595;SDS011;7898;48.658;9.068;2023-04-30T11:56:01;3.75;;;3.42;;
15595;SDS011;7898;48.658;9.068;2023-04-30T11:58:32;4.13;;;3.38;;
15595;SDS011;7898;48.658;9.068;2023-04-30T12:00:59;4.35;;;3.75;;
15595;SDS011;7898;48.658;9.068;2023-04-30T12:03:28;3.50;;;3.20;;
15595;SDS011;7898;48.658;9.068;2023-04-30T12:05:55;5.53;;;3.28;;
15595;SDS011;7898;48.658;9.068;2023-04-30T12:08:23;4.07;;;3.67;;
15595;SDS011;7898;48.658;9.068;2023-04-30T12:10:50;5.80;;;3.53;;
15595;SDS011;7898;48.658;9.068;2023-04-30T12:13:17;4.05;;;3.35;;
15595;SDS011;7898;48.658;9.068;2023-04-30T12:15:55;4.32;;;3.50;;
15595;SDS011;7898;48.658;9.068;2023-04-30T12:18:24;4.55;;;3.55;;
15595;SDS011;7898;48.658;9.068;2023-04-30T12:20:52;3.85;;;3.55;;
15595;SDS011;7898;48.658;9.068;2023-04-30T12:23:19;7.05;;;4.10;;
15595;SDS011;7898;48.658;9.068;2023-04-30T12:25:46;6.65;;;3.75;;
15595;SDS011;7898;48.658;9.068;2023-04-30T12:28:13;4.35;;;3.85;;
15595;SDS011;7898;48.658;9.068;2023-04-30T12:30:41;3.45;;;3.15;;
15595;SDS011;7898;48.658;9.068;2023-04-30T12:33:09;3.20;;;2.90;;
15595;SDS011;7898;48.658;9.068;2023-04-30T12:35:40;4.88;;;3.17;;
15595;SDS011;7898;48.658;9.068;2023-04-30T12:38:10;5.03;;;4.05;;
15595;SDS011;7898;48.658;9.068;2023-04-30T12:40:45;3.33;;;3.03;;
15595;SDS011;7898;48.658;9.068;2023-04-30T12:43:14;6.28;;;3.60;;
15595;SDS011;7898;48.658;9.068;2023-04-30T12:45:47;3.92;;;3.63;;
15595;SDS011;7898;48.658;9.068;2023-04-30T12:48:16;3.97;;;3.58;;
15595;SDS011;7898;48.658;9.068;2023-04-30T12:50:49;3.58;;;3.25;;
15595;SDS011;7898;48.658;9.068;2023-04-30T12:53:19;4.07;;;2.80;;
15595;SDS011;7898;48.658;9.068;2023-04-30T12:58:31;4.70;;;3.33;;
15595;SDS011;7898;48.658;9.068;2023-04-30T13:00:58;3.25;;;2.95;;
15595;SDS011;7898;48.658;9.068;2023-04-30T13:03:25;4.10;;;3.70;;
15595;SDS011;7898;48.658;9.068;2023-04-30T13:05:52;4.68;;;3.60;;
15595;SDS011;7898;48.658;9.068;2023-04-30T13:08:21;3.92;;;3.53;;
15595;SDS011;7898;48.658;9.068;2023-04-30T13:10:48;4.95;;;3.10;;
15595;SDS011;7898;48.658;9.068;2023-04-30T13:13:16;3.97;;;3.47;;
15595;SDS011;7898;48.658;9.068;2023-04-30T13:15:44;4.93;;;3.13;;
15595;SDS011;7898;48.658;9.068;2023-04-30T13:18:11;4.13;;;3.50;;
15595;SDS011;7898;48.658;9.068;2023-04-30T13:20:39;4.30;;;3.40;;
15595;SDS011;7898;48.658;9.068;2023-04-30T13:23:08;5.38;;;3.55;;
15595;SDS011;7898;48.658;9.068;2023-04-30T13:25:37;5.15;;;3.65;;
15595;SDS011;7898;48.658;9.068;2023-04-30T13:28:05;3.92;;;3.45;;
15595;SDS011;7898;48.658;9.068;2023-04-30T13:30:32;3.90;;;3.50;;
15595;SDS011;7898;48.658;9.068;2023-04-30T13:32:59;4.68;;;3.88;;
15595;SDS011;7898;48.658;9.068;2023-04-30T13:35:26;4.57;;;3.38;;
15595;SDS011;7898;48.658;9.068;2023-04-30T13:37:53;3.92;;;3.53;;
15595;SDS011;7898;48.658;9.068;2023-04-30T13:40:21;3.95;;;3.55;;
15595;SDS011;7898;48.658;9.068;2023-04-30T13:42:50;4.55;;;4.03;;
15595;SDS011;7898;48.658;9.068;2023-04-30T13:45:17;4.00;;;3.60;;
15595;SDS011;7898;48.658;9.068;2023-04-30T13:47:43;3.58;;;3.28;;
15595;SDS011;7898;48.658;9.068;2023-04-30T13:50:11;3.72;;;3.42;;
15595;SDS011;7898;48.658;9.068;2023-04-30T13:52:38;5.53;;;3.80;;
15595;SDS011;7898;48.658;9.068;2023-04-30T13:55:05;3.90;;;3.40;;
15595;SDS011;7898;48.658;9.068;2023-04-30T13:57:33;3.35;;;3.00;;
15595;SDS011;7898;48.658;9.068;2023-04-30T14:00:02;3.72;;;2.95;;
15595;SDS011;7898;48.658;9.068;2023-04-30T14:02:30;3.58;;;3.28;;
15595;SDS011;7898;48.658;9.068;2023-04-30T14:04:57;6.63;;;3.83;;
15595;SDS011;7898;48.658;9.068;2023-04-30T14:07:24;7.40;;;3.67;;
15595;SDS011;7898;48.658;9.068;2023-04-30T14:09:51;4.10;;;3.63;;
15595;SDS011;7898;48.658;9.068;2023-04-30T14:12:18;3.60;;;3.30;;
15595;SDS011;7898;48.658;9.068;2023-04-30T14:14:48;4.50;;;3.10;;
15595;SDS011;7898;48.658;9.068;2023-04-30T14:17:16;3.85;;;3.35;;
15595;SDS011;7898;48.658;9.068;2023-04-30T14:19:43;3.45;;;3.00;;
15595;SDS011;7898;48.658;9.068;2023-04-30T14:22:10;3.80;;;3.40;;
15595;SDS011;7898;48.658;9.068;2023-04-30T14:24:37;3.40;;;3.10;;
15595;SDS011;7898;48.658;9.068;2023-04-30T14:27:04;3.15;;;2.90;;
15595;SDS011;7898;48.658;9.068;2023-04-30T14:29:31;3.95;;;3.15;;
15595;SDS011;7898;48.658;9.068;2023-04-30T14:31:57;3.70;;;3.40;;
15595;SDS011;7898;48.658;9.068;2023-04-30T14:34:26;4.25;;;3.13;;
15595;SDS011;7898;48.658;9.068;2023-04-30T14:36:53;3.40;;;3.10;;
15595;SDS011;7898;48.658;9.068;2023-04-30T14:39:23;3.17;;;2.90;;
15595;SDS011;7898;48.658;9.068;2023-04-30T14:41:50;3.30;;;2.80;;
15595;SDS011;7898;48.658;9.068;2023-04-30T14:44:17;4.28;;;3.10;;
15595;SDS011;7898;48.658;9.068;2023-04-30T14:46:45;3.55;;;3.00;;
15595;SDS011;7898;48.658;9.068;2023-04-30T14:49:12;3.63;;;2.75;;
15595;SDS011;7898;48.658;9.068;2023-04-30T14:51:41;3.20;;;2.90;;
15595;SDS011;7898;48.658;9.068;2023-04-30T14:54:08;3.20;;;2.90;;
15595;SDS011;7898;48.658;9.068;2023-04-30T14:56:35;5.32;;;3.17;;
15595;SDS011;7898;48.658;9.068;2023-04-30T14:59:01;4.43;;;3.10;;
15595;SDS011;7898;48.658;9.068;2023-04-30T15:01:28;3.50;;;3.20;;
15595;SDS011;7898;48.658;9.068;2023-04-30T15:03:56;3.20;;;2.90;;